createdAt,value
2023-01-04T00:04:01.347Z,10.30
2023-01-04T00:08:03.491Z,12.70
2023-01-04T00:12:05.605Z,12.80
2023-01-04T00:16:12.161Z,10.90
2023-01-04T00:20:14.237Z,9.70
2023-01-04T00:24:16.050Z,9.20
2023-01-04T00:28:17.946Z,10.40
2023-01-04T00:32:19.827Z,9.40
2023-01-04T00:36:22.706Z,10.50
2023-01-04T00:40:24.512Z,9.90
2023-01-04T00:44:26.654Z,10.30
2023-01-04T00:48:29.547Z,10.60
2023-01-04T00:52:31.384Z,10.50
2023-01-04T00:56:34.522Z,9.70
2023-01-04T01:00:36.638Z,10.00
2023-01-04T01:04:38.529Z,9.60
2023-01-04T01:08:40.402Z,11.30
2023-01-04T01:12:42.304Z,11.50
2023-01-04T01:16:55.171Z,11.30
2023-01-04T01:20:58.170Z,11.50
2023-01-04T01:25:00.202Z,11.80
2023-01-04T01:29:02.147Z,10.10
2023-01-04T01:33:03.975Z,10.60
2023-01-04T01:37:05.886Z,11.30
2023-01-04T01:41:13.700Z,11.50
2023-01-04T01:45:24.471Z,14.00
2023-01-04T01:49:35.258Z,13.30
2023-01-04T01:53:41.197Z,11.90
2023-01-04T01:57:45.135Z,12.40
2023-01-04T02:01:47.411Z,10.70
2023-01-04T02:05:53.305Z,11.60
2023-01-04T02:09:56.299Z,11.10
2023-01-04T02:14:18.442Z,11.50
2023-01-04T02:18:36.862Z,11.10
2023-01-04T02:22:41.356Z,12.70
2023-01-04T02:27:17.091Z,11.20
2023-01-04T02:31:37.193Z,13.20
2023-01-04T02:36:13.988Z,12.60
2023-01-04T02:40:31.004Z,12.60
2023-01-04T02:44:56.824Z,11.50
2023-01-04T02:49:21.773Z,11.50
2023-01-04T02:53:38.243Z,13.20
2023-01-04T02:58:05.322Z,14.30
2023-01-04T03:02:48.003Z,13.50
2023-01-04T03:07:03.609Z,12.70
2023-01-04T03:11:32.478Z,13.40
2023-01-04T03:15:39.247Z,11.80
2023-01-04T03:19:51.351Z,12.70
2023-01-04T03:24:18.099Z,11.80
2023-01-04T03:28:41.559Z,12.30
2023-01-04T03:33:12.211Z,12.40
2023-01-04T03:37:31.732Z,14.40
2023-01-04T03:42:08.780Z,13.10
2023-01-04T03:46:48.034Z,12.30
2023-01-04T03:50:57.895Z,12.30
2023-01-04T03:55:02.907Z,13.10
2023-01-04T03:59:05.133Z,14.10
2023-01-04T04:03:08.119Z,13.10
2023-01-04T04:07:28.619Z,13.70
2023-01-04T04:11:30.702Z,15.70
2023-01-04T04:15:32.611Z,14.30
2023-01-04T04:19:34.484Z,14.30
2023-01-04T04:23:36.375Z,13.90
2023-01-04T04:27:38.190Z,13.10
2023-01-04T04:31:40.131Z,14.00
2023-01-04T04:35:42.013Z,13.10
2023-01-04T04:39:43.827Z,14.80
2023-01-04T04:43:45.653Z,14.50
2023-01-04T04:47:47.530Z,16.10
2023-01-04T04:51:49.467Z,13.30
2023-01-04T04:55:52.227Z,14.00
2023-01-04T04:59:54.071Z,13.10
2023-01-04T05:03:56.582Z,13.70
2023-01-04T05:07:58.455Z,12.90
2023-01-04T05:12:18.892Z,12.90
2023-01-04T05:16:20.761Z,12.40
2023-01-04T05:20:22.759Z,12.60
2023-01-04T05:24:24.637Z,12.50
2023-01-04T05:28:27.107Z,14.80
2023-01-04T05:32:29.015Z,14.50
2023-01-04T05:36:30.906Z,13.00
2023-01-04T05:40:32.853Z,13.60
2023-01-04T05:44:34.747Z,15.20
2023-01-04T05:48:36.561Z,15.00
2023-01-04T05:52:38.438Z,15.40
2023-01-04T05:56:40.296Z,13.50
2023-01-04T06:00:42.172Z,16.50
2023-01-04T06:04:44.517Z,14.60
2023-01-04T06:08:46.424Z,15.90
2023-01-04T06:12:48.431Z,14.10
2023-01-04T06:16:50.301Z,12.20
2023-01-04T06:20:52.145Z,18.40
2023-01-04T06:24:54.214Z,18.00
2023-01-04T06:28:57.483Z,15.50
2023-01-04T06:32:59.284Z,16.60
2023-01-04T06:37:01.390Z,17.80
2023-01-04T06:41:03.404Z,17.20
2023-01-04T06:45:06.615Z,18.10
2023-01-04T06:49:08.450Z,15.20
2023-01-04T06:53:10.425Z,16.50
2023-01-04T06:57:12.902Z,17.50
2023-01-04T07:01:15.613Z,17.60
2023-01-04T07:05:17.883Z,18.00
2023-01-04T07:09:19.759Z,19.10
2023-01-04T07:13:21.635Z,21.10
2023-01-04T07:17:29.741Z,22.30
2023-01-04T07:21:32.022Z,21.70
2023-01-04T07:25:34.050Z,21.60
2023-01-04T07:29:35.897Z,22.20
2023-01-04T07:33:37.752Z,25.60
2023-01-04T07:37:39.999Z,26.50
2023-01-04T07:41:42.668Z,25.50
2023-01-04T07:45:45.750Z,29.10
2023-01-04T07:49:49.537Z,35.00
2023-01-04T07:53:51.443Z,29.20
2023-01-04T07:57:54.068Z,28.10
2023-01-04T08:01:56.091Z,28.10
2023-01-04T08:05:58.085Z,30.20
2023-01-04T08:10:00.242Z,24.00
2023-01-04T08:14:02.454Z,20.60
2023-01-04T08:18:04.296Z,22.70
2023-01-04T08:22:06.243Z,20.30
2023-01-04T08:26:10.652Z,26.90
2023-01-04T08:30:12.509Z,23.60
2023-01-04T08:34:14.504Z,20.30
2023-01-04T08:38:57.634Z,19.40
2023-01-04T08:42:38.402Z,20.50
2023-01-04T08:46:40.328Z,20.70
2023-01-04T08:50:42.395Z,16.50
2023-01-04T08:54:44.296Z,16.10
2023-01-04T08:58:46.204Z,17.30
2023-01-04T09:02:48.174Z,15.90
2023-01-04T09:06:50.206Z,16.60
2023-01-04T09:10:52.125Z,18.70
2023-01-04T09:14:53.965Z,17.80
2023-01-04T09:18:56.594Z,17.10
2023-01-04T09:22:58.408Z,18.60
2023-01-04T09:27:00.589Z,17.80
2023-01-04T09:31:06.615Z,22.80
2023-01-04T09:35:08.859Z,17.50
2023-01-04T09:39:21.156Z,17.30
2023-01-04T09:43:27.329Z,19.60
2023-01-04T09:47:38.010Z,17.00
2023-01-04T09:51:47.945Z,18.00
2023-01-04T09:55:53.179Z,17.30
2023-01-04T10:00:20.530Z,16.00
2023-01-04T10:04:38.580Z,15.80
2023-01-04T10:08:42.330Z,16.70
2023-01-04T10:13:10.648Z,15.90
2023-01-04T10:22:42.345Z,17.00
2023-01-04T10:26:49.285Z,17.10
2023-01-04T10:31:40.955Z,18.80
2023-01-04T10:35:40.452Z,17.80
2023-01-04T10:39:44.198Z,16.60
2023-01-04T10:44:11.077Z,16.80
2023-01-04T10:48:20.386Z,16.10
2023-01-04T10:52:35.776Z,17.00
2023-01-04T10:56:49.006Z,15.60
2023-01-04T11:01:03.347Z,15.70
2023-01-04T11:05:14.177Z,16.70
2023-01-04T11:09:25.471Z,16.10
2023-01-04T11:13:28.204Z,15.00
2023-01-04T11:17:31.570Z,14.40
2023-01-04T11:21:43.043Z,13.80
2023-01-04T11:25:56.937Z,14.10
2023-01-04T11:30:19.477Z,14.10
2023-01-04T11:34:46.870Z,13.40
2023-01-04T11:38:55.757Z,14.30
2023-01-04T11:43:18.921Z,11.80
2023-01-04T11:47:26.603Z,11.00
2023-01-04T11:51:30.111Z,11.80
2023-01-04T11:55:41.921Z,11.60
2023-01-04T11:59:44.120Z,11.50
2023-01-04T12:03:46.016Z,11.10
2023-01-04T12:07:48.409Z,11.40
2023-01-04T12:11:55.934Z,12.40
2023-01-04T12:16:10.148Z,13.50
2023-01-04T12:20:19.552Z,12.90
2023-01-04T12:24:25.953Z,10.70
2023-01-04T12:28:34.343Z,13.10
2023-01-04T12:32:36.163Z,12.10
2023-01-04T12:36:38.074Z,12.90
2023-01-04T12:40:49.119Z,13.40
2023-01-04T12:44:51.599Z,11.80
2023-01-04T12:49:11.418Z,11.80
2023-01-04T12:53:49.315Z,11.40
2023-01-04T12:57:52.224Z,12.20
2023-01-04T13:02:20.192Z,11.40
2023-01-04T13:06:24.535Z,11.10
2023-01-04T13:10:34.421Z,10.70
2023-01-04T13:14:43.089Z,11.10
2023-01-04T13:18:47.126Z,12.80
2023-01-04T13:22:52.796Z,13.30
2023-01-04T13:26:55.138Z,13.50
2023-01-04T13:31:00.067Z,13.30
2023-01-04T13:35:13.978Z,14.50
2023-01-04T13:39:16.543Z,14.90
2023-01-04T13:43:33.629Z,15.00
2023-01-04T13:47:37.570Z,14.90
2023-01-04T13:51:39.498Z,18.10
2023-01-04T13:55:41.343Z,16.20
2023-01-04T13:59:43.327Z,16.80
2023-01-04T14:03:51.472Z,15.30
2023-01-04T14:07:53.437Z,16.50
2023-01-04T14:12:05.803Z,16.40
2023-01-04T14:16:14.705Z,23.80
2023-01-04T14:20:19.639Z,16.60
2023-01-04T14:25:07.874Z,16.00
2023-01-04T14:28:53.941Z,53.20
2023-01-04T14:33:02.554Z,21.40
2023-01-04T14:37:04.502Z,17.30
2023-01-04T14:41:18.038Z,15.60
2023-01-04T14:45:20.135Z,13.40
2023-01-04T14:49:22.509Z,13.60
2023-01-04T14:53:24.542Z,12.90
2023-01-04T14:57:26.445Z,11.90
2023-01-04T15:01:28.564Z,13.60
2023-01-04T15:05:35.683Z,16.30
2023-01-04T15:09:39.714Z,14.00
2023-01-04T15:13:41.754Z,14.40
2023-01-04T15:17:43.768Z,14.80
2023-01-04T15:21:45.645Z,15.50
2023-01-04T15:25:47.814Z,17.40
2023-01-04T15:29:49.789Z,17.30
2023-01-04T15:33:51.626Z,18.90
2023-01-04T15:37:53.504Z,19.80
2023-01-04T15:42:14.039Z,18.40
2023-01-04T15:46:16.023Z,19.90
2023-01-04T15:50:18.675Z,17.00
2023-01-04T15:54:21.197Z,18.90
2023-01-04T15:58:23.039Z,19.80
2023-01-04T16:02:25.103Z,18.80
2023-01-04T16:06:27.259Z,18.70
2023-01-04T16:10:29.158Z,18.80
2023-01-04T16:14:31.100Z,18.30
2023-01-04T16:18:33.194Z,16.60
2023-01-04T16:22:35.159Z,16.80
2023-01-04T16:26:37.340Z,17.30
2023-01-04T16:30:39.312Z,16.20
2023-01-04T16:34:41.199Z,15.50
2023-01-04T16:38:45.264Z,17.90
2023-01-04T16:42:50.903Z,16.70
2023-01-04T16:46:52.858Z,16.70
2023-01-04T16:50:54.724Z,17.30
2023-01-04T16:54:56.623Z,17.70
2023-01-04T16:58:58.709Z,16.40
2023-01-04T17:03:00.550Z,16.10
2023-01-04T17:07:02.391Z,18.00
2023-01-04T17:11:42.329Z,17.30
2023-01-04T17:15:44.344Z,16.70
2023-01-04T17:19:46.639Z,16.40
2023-01-04T17:23:50.815Z,17.30
2023-01-04T17:27:52.691Z,15.90
2023-01-04T17:31:54.631Z,16.90
2023-01-04T17:35:57.281Z,17.10
2023-01-04T17:39:59.163Z,17.00
2023-01-04T17:44:04.607Z,15.60
2023-01-04T17:48:06.696Z,15.20
2023-01-04T17:52:09.196Z,15.20
2023-01-04T17:56:17.703Z,14.30
2023-01-04T18:00:19.799Z,14.90
2023-01-04T18:04:21.678Z,14.10
2023-01-04T18:08:23.599Z,16.30
2023-01-04T18:12:25.497Z,15.10
2023-01-04T18:16:28.968Z,14.90
2023-01-04T18:20:31.110Z,14.30
2023-01-04T18:24:37.102Z,12.80
2023-01-04T18:28:40.998Z,12.60
2023-01-04T18:32:42.845Z,13.20
2023-01-04T18:36:45.750Z,10.20
2023-01-04T18:40:47.654Z,9.40
2023-01-04T18:44:50.045Z,8.60
2023-01-04T18:49:00.121Z,7.80
2023-01-04T18:53:02.165Z,8.60
2023-01-04T18:57:04.719Z,8.00
2023-01-04T19:01:10.085Z,8.20
2023-01-04T19:05:12.991Z,10.00
2023-01-04T19:09:14.851Z,10.70
2023-01-04T19:13:16.675Z,8.30
2023-01-04T19:17:21.097Z,8.00
2023-01-04T19:21:23.001Z,8.10
2023-01-04T19:25:28.442Z,7.40
2023-01-04T19:29:31.779Z,8.00
2023-01-04T19:33:34.425Z,7.20
2023-01-04T19:37:36.352Z,7.10
2023-01-04T19:41:38.437Z,6.50
2023-01-04T19:45:41.897Z,7.00
2023-01-04T19:49:43.880Z,10.00
2023-01-04T19:53:45.720Z,18.60
2023-01-04T19:57:47.959Z,15.60
2023-01-04T20:01:50.072Z,8.30
2023-01-04T20:05:52.870Z,9.00
2023-01-04T20:09:54.787Z,6.50
2023-01-04T20:13:56.666Z,10.20
2023-01-04T20:17:58.526Z,6.40
2023-01-04T20:22:00.394Z,6.00
2023-01-04T20:26:15.548Z,5.00
2023-01-04T20:30:18.598Z,7.00
2023-01-04T20:34:20.483Z,5.90
2023-01-04T20:38:22.482Z,5.60
2023-01-04T20:42:43.173Z,5.70
2023-01-04T20:46:48.283Z,6.20
2023-01-04T20:50:51.011Z,6.50
2023-01-04T20:54:52.941Z,6.40
2023-01-04T20:58:55.702Z,7.00
2023-01-04T21:02:57.698Z,14.30
2023-01-04T21:06:59.887Z,7.40
2023-01-04T21:11:02.201Z,7.60
2023-01-04T21:15:04.357Z,6.90
2023-01-04T21:19:06.578Z,7.90
2023-01-04T21:23:13.971Z,7.30
2023-01-04T21:27:15.918Z,8.60
2023-01-04T21:31:23.387Z,8.80
2023-01-04T21:35:27.620Z,5.90
2023-01-04T21:39:29.577Z,9.40
2023-01-04T21:43:31.541Z,6.80
2023-01-04T21:47:33.691Z,7.60
2023-01-04T21:51:35.582Z,6.20
2023-01-04T21:55:37.497Z,6.80
2023-01-04T21:59:42.176Z,6.00
2023-01-04T22:03:44.356Z,6.60
2023-01-04T22:07:46.461Z,5.70
2023-01-04T22:11:49.624Z,5.10
2023-01-04T22:15:51.543Z,4.50
2023-01-04T22:19:53.415Z,4.00
2023-01-04T22:23:55.314Z,4.20
2023-01-04T22:27:57.181Z,4.30
2023-01-04T22:31:59.391Z,4.30
2023-01-04T22:36:07.048Z,3.40
2023-01-04T22:40:09.273Z,4.10
2023-01-04T22:44:11.146Z,3.90
2023-01-04T22:48:13.065Z,3.20
2023-01-04T22:52:14.980Z,3.70
2023-01-04T22:56:21.368Z,3.60
2023-01-04T23:00:24.166Z,4.10
2023-01-04T23:04:26.176Z,3.20
2023-01-04T23:08:28.172Z,2.50
2023-01-04T23:12:30.028Z,3.00
2023-01-04T23:16:33.358Z,3.30
2023-01-04T23:20:35.604Z,2.80
2023-01-04T23:24:39.096Z,2.70
2023-01-04T23:28:41.806Z,2.80
2023-01-04T23:32:43.672Z,2.80
2023-01-04T23:36:45.622Z,2.40
2023-01-04T23:40:48.171Z,2.50
2023-01-04T23:44:50.005Z,2.90
2023-01-04T23:48:51.893Z,2.60
2023-01-04T23:52:53.760Z,3.10
2023-01-04T23:56:55.975Z,3.10
